Time;durP1;ratioP1;P1;durP2;ratioP2;P2;SDS_P1;SDS_P2;PMS_P1;PMS_P2;Temp;Humidity;BMP_temperature;BMP_pressure;BME280_temperature;BME280_humidity;BME280_pressure;Samples;Min_cycle;Max_cycle;Signal;HPM_P1;HPM_P2
2020/12/21 00:00:17;;;;;;;14.87;12.57;;;7.30;99.90;;;;;;5001981;28;20188;-41
2020/12/21 00:02:47;;;;;;;17.97;13.77;;;7.30;99.90;;;;;;5003985;28;20224;-41
2020/12/21 00:05:13;;;;;;;15.65;13.82;;;7.30;99.90;;;;;;5003260;28;20251;-41
2020/12/21 00:07:40;;;;;;;14.30;12.88;;;7.30;99.90;;;;;;4998020;28;20620;-41
2020/12/21 00:10:07;;;;;;;14.55;12.27;;;7.30;99.90;;;;;;4997986;28;20564;-41
2020/12/21 00:12:36;;;;;;;14.77;13.25;;;7.20;99.90;;;;;;5013544;28;20191;-41
2020/12/21 00:15:04;;;;;;;14.73;13.23;;;7.10;99.90;;;;;;5009894;28;20207;-41
2020/12/21 00:17:31;;;;;;;14.20;12.57;;;7.10;99.90;;;;;;5001023;28;20274;-41
2020/12/21 00:19:57;;;;;;;15.20;11.83;;;7.10;99.90;;;;;;5001602;28;20201;-41
2020/12/21 00:22:24;;;;;;;15.15;10.85;;;7.10;99.90;;;;;;5002938;28;20256;-41
2020/12/21 00:24:50;;;;;;;18.43;12.43;;;7.00;99.90;;;;;;5001645;28;20221;-42
2020/12/21 00:27:17;;;;;;;15.17;12.63;;;7.00;99.90;;;;;;5001889;28;20823;-41
2020/12/21 00:29:44;;;;;;;15.30;12.27;;;7.00;99.90;;;;;;5009703;28;21321;-42
2020/12/21 00:32:11;;;;;;;13.68;12.02;;;6.90;99.90;;;;;;5005993;28;20221;-41
2020/12/21 00:34:37;;;;;;;13.95;12.05;;;6.90;99.90;;;;;;5006854;28;20727;-41
2020/12/21 00:37:06;;;;;;;14.88;11.40;;;6.80;99.90;;;;;;5003615;28;20208;-41
2020/12/21 00:39:33;;;;;;;13.77;12.27;;;6.80;99.90;;;;;;5001214;28;20201;-41
2020/12/21 00:41:59;;;;;;;16.13;12.33;;;6.80;99.90;;;;;;5004385;28;20244;-41
2020/12/21 00:44:26;;;;;;;14.27;12.50;;;6.90;99.90;;;;;;5000907;28;20194;-41
2020/12/21 00:46:53;;;;;;;14.07;11.38;;;6.90;99.90;;;;;;5003525;28;20217;-42
2020/12/21 00:49:20;;;;;;;13.07;11.70;;;7.00;99.90;;;;;;5004666;28;20214;-40
2020/12/21 00:51:47;;;;;;;16.53;12.03;;;7.10;99.90;;;;;;4985465;28;20652;-41
2020/12/21 00:54:14;;;;;;;13.05;11.65;;;7.10;99.90;;;;;;4992758;28;20208;-41
2020/12/21 00:56:40;;;;;;;13.87;11.60;;;7.10;99.90;;;;;;5003497;28;20207;-42
2020/12/21 00:59:07;;;;;;;14.55;11.40;;;7.00;99.90;;;;;;4999978;28;20230;-42
2020/12/21 01:01:34;;;;;;;14.83;12.33;;;7.00;99.90;;;;;;5000416;28;20225;-40
2020/12/21 01:04:03;;;;;;;14.07;12.00;;;7.00;99.90;;;;;;5003286;28;20207;-42
2020/12/21 01:06:31;;;;;;;15.00;13.27;;;6.90;99.90;;;;;;5003490;28;20607;-40
2020/12/21 01:08:58;;;;;;;13.93;12.38;;;6.80;99.90;;;;;;5002068;28;20255;-41
2020/12/21 01:11:28;;;;;;;13.98;12.27;;;6.70;99.90;;;;;;5000957;28;20779;-41
2020/12/21 01:13:56;;;;;;;12.52;10.93;;;6.60;99.90;;;;;;5003919;28;20200;-41
2020/12/21 01:16:22;;;;;;;14.13;11.40;;;6.60;99.90;;;;;;5001830;28;20292;-42
2020/12/21 01:18:50;;;;;;;12.57;11.27;;;6.50;99.90;;;;;;5003776;28;20660;-42
2020/12/21 01:21:29;;;;;;;14.27;12.53;;;6.50;99.90;;;;;;5004817;28;20255;-42
2020/12/21 01:23:56;;;;;;;12.10;10.83;;;6.50;99.90;;;;;;5001887;28;20204;-42
2020/12/21 01:26:24;;;;;;;11.85;10.15;;;6.50;99.90;;;;;;4999798;28;20230;-42
2020/12/21 01:28:50;;;;;;;13.60;10.02;;;6.50;99.90;;;;;;5003542;28;20564;-42
2020/12/21 01:31:17;;;;;;;12.50;10.05;;;6.40;99.90;;;;;;5002087;28;20221;-42
2020/12/21 01:33:44;;;;;;;10.70;9.73;;;6.40;99.90;;;;;;5003291;28;20331;-42
2020/12/21 01:36:11;;;;;;;17.70;10.55;;;6.30;99.90;;;;;;5004774;28;20192;-42
2020/12/21 01:38:38;;;;;;;12.57;10.73;;;6.30;99.90;;;;;;5001773;28;20225;-42
2020/12/21 01:41:05;;;;;;;11.70;10.37;;;6.20;99.90;;;;;;5003277;28;20295;-42
2020/12/21 01:43:31;;;;;;;14.43;11.40;;;6.20;99.90;;;;;;5002645;28;20193;-42
2020/12/21 01:46:06;;;;;;;12.23;10.13;;;6.20;99.90;;;;;;4998034;28;20601;-42
2020/12/21 01:48:33;;;;;;;16.90;10.70;;;6.20;99.90;;;;;;4998940;28;20193;-42
2020/12/21 01:50:59;;;;;;;13.05;10.15;;;6.20;99.90;;;;;;5001525;28;20213;-42
2020/12/21 01:53:26;;;;;;;13.03;10.60;;;6.20;99.90;;;;;;5000800;28;20212;-42
2020/12/21 01:55:56;;;;;;;15.65;10.43;;;6.10;99.90;;;;;;5000404;28;20258;-42
2020/12/21 01:58:22;;;;;;;13.60;10.23;;;6.00;99.90;;;;;;5005210;28;20236;-42
2020/12/21 02:00:49;;;;;;;14.87;10.67;;;6.00;99.90;;;;;;5010561;28;20231;-42
2020/12/21 02:03:16;;;;;;;11.40;10.20;;;5.90;99.90;;;;;;5011081;28;20700;-42
2020/12/21 02:05:42;;;;;;;13.53;9.70;;;5.90;99.90;;;;;;4996217;28;20221;-42
2020/12/21 02:08:09;;;;;;;13.70;9.53;;;5.90;99.90;;;;;;5010360;28;20312;-42
2020/12/21 02:10:35;;;;;;;13.80;9.30;;;5.90;99.90;;;;;;5011430;28;20606;-42
2020/12/21 02:13:04;;;;;;;12.40;9.40;;;5.90;99.90;;;;;;5008717;28;20200;-42
2020/12/21 02:15:30;;;;;;;12.25;9.18;;;6.00;99.90;;;;;;5002442;28;20237;-42
2020/12/21 02:17:57;;;;;;;13.07;9.95;;;5.80;99.90;;;;;;5005176;28;20747;-42
2020/12/21 02:20:28;;;;;;;12.85;10.00;;;5.80;99.90;;;;;;5003620;28;20201;-41
2020/12/21 02:22:55;;;;;;;16.75;10.35;;;5.80;99.90;;;;;;5005603;28;20193;-42
2020/12/21 02:25:21;;;;;;;12.23;9.60;;;5.80;99.90;;;;;;4992498;28;20296;-42
2020/12/21 02:27:48;;;;;;;15.27;11.63;;;5.70;99.90;;;;;;5005621;28;20219;-42
2020/12/21 02:30:14;;;;;;;15.23;9.55;;;5.80;99.90;;;;;;5004791;28;20703;-42
2020/12/21 02:32:41;;;;;;;14.83;10.23;;;5.80;99.90;;;;;;5011164;28;20260;-42
2020/12/21 02:35:07;;;;;;;13.10;9.53;;;5.80;99.90;;;;;;5010957;28;20566;-42
2020/12/21 02:37:35;;;;;;;12.07;9.97;;;5.70;99.90;;;;;;5010097;28;20204;-42
2020/12/21 02:40:03;;;;;;;14.87;11.13;;;5.80;99.90;;;;;;5009675;28;20735;-43
2020/12/21 02:42:29;;;;;;;16.10;11.37;;;5.70;99.90;;;;;;4990465;28;20241;-42
2020/12/21 02:44:56;;;;;;;13.57;11.63;;;5.80;99.90;;;;;;4991366;28;20311;-43
2020/12/21 02:47:22;;;;;;;12.93;9.35;;;5.80;99.90;;;;;;4991363;28;20193;-43
2020/12/21 02:49:49;;;;;;;14.70;11.18;;;5.70;99.90;;;;;;4991694;28;20266;-42
2020/12/21 02:52:15;;;;;;;12.63;10.97;;;5.70;99.90;;;;;;5001863;28;20224;-42
2020/12/21 02:54:44;;;;;;;13.45;11.88;;;5.80;99.90;;;;;;5013957;28;20228;-42
2020/12/21 02:57:10;;;;;;;15.10;11.47;;;5.70;99.90;;;;;;4993654;28;20703;-42
2020/12/21 02:59:37;;;;;;;18.87;12.13;;;5.70;99.90;;;;;;5001233;28;20196;-42
2020/12/21 03:02:03;;;;;;;17.53;11.20;;;5.70;99.90;;;;;;5011605;28;20282;-42
2020/12/21 03:04:30;;;;;;;17.67;10.90;;;5.70;99.90;;;;;;4991077;28;20189;-42
2020/12/21 03:06:56;;;;;;;15.03;12.20;;;5.70;99.90;;;;;;5009131;28;20239;-42
2020/12/21 03:09:23;;;;;;;14.98;11.32;;;6.00;99.90;;;;;;5003563;28;20213;-42
2020/12/21 03:11:50;;;;;;;12.63;10.90;;;5.90;99.90;;;;;;4991275;28;20225;-41
2020/12/21 03:14:17;;;;;;;14.03;10.37;;;5.90;99.90;;;;;;4998942;28;20233;-42
2020/12/21 03:16:43;;;;;;;14.27;11.57;;;5.90;99.90;;;;;;4994524;28;20578;-42
2020/12/21 03:19:10;;;;;;;13.27;11.43;;;5.90;99.90;;;;;;4994697;28;20583;-42
2020/12/21 03:21:36;;;;;;;17.73;11.88;;;5.80;99.90;;;;;;4994403;28;20712;-42
2020/12/21 03:24:03;;;;;;;16.55;12.23;;;5.80;99.90;;;;;;5008123;28;20501;-42
2020/12/21 03:26:30;;;;;;;16.03;11.77;;;5.70;99.90;;;;;;5014674;28;20225;-42
2020/12/21 03:28:57;;;;;;;14.73;9.90;;;5.70;99.90;;;;;;5012980;28;20208;-40
2020/12/21 03:31:25;;;;;;;13.40;10.17;;;5.70;99.90;;;;;;4996701;28;20217;-40
2020/12/21 03:33:51;;;;;;;17.27;11.17;;;5.60;99.90;;;;;;4994612;28;20213;-39
2020/12/21 03:36:18;;;;;;;12.13;10.53;;;5.70;99.90;;;;;;4994312;28;20190;-40
2020/12/21 03:38:44;;;;;;;15.10;10.70;;;5.50;99.90;;;;;;4994034;28;20253;-40
2020/12/21 03:41:11;;;;;;;18.63;11.70;;;5.50;99.90;;;;;;4994109;28;20217;-40
2020/12/21 03:43:37;;;;;;;18.50;11.13;;;5.40;99.90;;;;;;5002865;28;20668;-40
2020/12/21 03:46:05;;;;;;;16.47;10.40;;;5.30;99.90;;;;;;5013557;28;20222;-40
2020/12/21 03:48:31;;;;;;;12.10;9.63;;;5.30;99.90;;;;;;4998532;28;20676;-40
2020/12/21 03:50:58;;;;;;;10.57;9.43;;;5.20;99.90;;;;;;4994488;28;20304;-40
2020/12/21 03:53:24;;;;;;;15.07;10.87;;;5.30;99.90;;;;;;4999003;28;20191;-40
2020/12/21 03:55:51;;;;;;;15.27;9.80;;;5.50;99.90;;;;;;4995605;28;20201;-40
2020/12/21 03:58:17;;;;;;;17.30;10.33;;;5.30;99.90;;;;;;5001073;28;20202;-40
2020/12/21 04:00:44;;;;;;;13.87;10.97;;;5.40;99.90;;;;;;4994377;28;20237;-41
2020/12/21 04:03:11;;;;;;;14.47;11.23;;;5.30;99.90;;;;;;5011830;28;20200;-40
2020/12/21 04:05:38;;;;;;;16.90;11.10;;;5.30;99.90;;;;;;5013489;28;20228;-41
2020/12/21 04:08:04;;;;;;;15.47;11.10;;;5.30;99.90;;;;;;5012401;28;20552;-40
2020/12/21 04:10:31;;;;;;;16.23;11.40;;;5.30;99.90;;;;;;4999560;28;20253;-40
2020/12/21 04:12:57;;;;;;;14.13;9.90;;;5.30;99.90;;;;;;4976881;28;20300;-40
2020/12/21 04:15:24;;;;;;;13.10;10.53;;;5.30;99.90;;;;;;5013082;28;20189;-40
2020/12/21 04:17:50;;;;;;;15.90;10.97;;;5.30;99.90;;;;;;5005606;28;20216;-41
2020/12/21 04:20:17;;;;;;;16.23;11.40;;;5.40;99.90;;;;;;5004900;28;20292;-40
2020/12/21 04:22:44;;;;;;;16.93;11.57;;;5.40;99.90;;;;;;5013072;28;20336;-40
2020/12/21 04:25:10;;;;;;;17.50;11.97;;;5.40;99.90;;;;;;5012139;28;20358;-40
2020/12/21 04:27:37;;;;;;;15.03;11.70;;;5.40;99.90;;;;;;5002651;28;20279;-40
2020/12/21 04:30:04;;;;;;;15.68;11.45;;;5.30;99.90;;;;;;5012517;28;20738;-41
2020/12/21 04:32:31;;;;;;;16.20;11.87;;;5.40;99.90;;;;;;5012723;28;20727;-40
2020/12/21 04:34:58;;;;;;;15.20;12.73;;;5.40;99.90;;;;;;5011283;28;20197;-40
2020/12/21 04:37:25;;;;;;;19.53;13.00;;;5.50;99.90;;;;;;5004756;28;20308;-40
2020/12/21 04:39:52;;;;;;;18.03;12.43;;;5.50;99.90;;;;;;4992985;28;20206;-41
2020/12/21 04:42:18;;;;;;;18.17;12.43;;;5.60;99.90;;;;;;5003893;28;20747;-40
2020/12/21 04:44:45;;;;;;;17.83;11.60;;;5.70;99.90;;;;;;5004665;28;20563;-40
2020/12/21 04:47:15;;;;;;;15.47;12.03;;;5.80;99.90;;;;;;4976286;28;20686;-40
2020/12/21 04:49:42;;;;;;;14.50;10.80;;;5.80;99.90;;;;;;4993395;28;20267;-41
2020/12/21 04:52:11;;;;;;;15.93;11.20;;;5.80;99.90;;;;;;4993907;28;20224;-40
2020/12/21 04:54:40;;;;;;;18.67;12.00;;;5.80;99.90;;;;;;4992877;28;20204;-41
2020/12/21 04:57:07;;;;;;;15.97;10.83;;;5.80;99.90;;;;;;4978646;28;20297;-40
2020/12/21 04:59:33;;;;;;;14.82;10.80;;;5.90;99.90;;;;;;4981583;28;20292;-40
2020/12/21 05:02:04;;;;;;;20.47;11.50;;;5.80;99.90;;;;;;4997350;28;20240;-40
2020/12/21 05:04:31;;;;;;;14.60;11.10;;;5.70;99.90;;;;;;5054305;28;20229;-40
2020/12/21 05:06:57;;;;;;;17.47;11.87;;;5.60;99.90;;;;;;5051584;28;20218;-40
2020/12/21 05:09:25;;;;;;;14.55;9.85;;;5.60;99.90;;;;;;5067048;28;20207;-40
2020/12/21 05:11:57;;;;;;;14.73;11.33;;;5.60;99.90;;;;;;5062491;28;20230;-41
2020/12/21 05:14:35;;;;;;;15.90;10.80;;;5.50;99.90;;;;;;5056448;28;20191;-40
2020/12/21 05:17:11;;;;;;;16.13;10.17;;;5.50;99.90;;;;;;5071224;28;20246;-40
2020/12/21 05:19:38;;;;;;;19.13;10.68;;;5.30;99.90;;;;;;5056731;28;20573;-40
2020/12/21 05:22:10;;;;;;;13.53;9.37;;;5.30;99.90;;;;;;5052872;28;20226;-41
2020/12/21 05:24:37;;;;;;;14.53;10.37;;;5.30;99.90;;;;;;5071646;28;20195;-41
2020/12/21 05:27:11;;;;;;;13.53;10.80;;;5.20;99.90;;;;;;5061266;28;20197;-40
2020/12/21 05:29:37;;;;;;;13.87;11.03;;;5.30;99.90;;;;;;5063275;28;20681;-40
2020/12/21 05:32:04;;;;;;;16.55;11.05;;;5.20;99.90;;;;;;5071312;28;20363;-40
2020/12/21 05:34:31;;;;;;;24.40;12.67;;;5.30;99.90;;;;;;5070990;28;20198;-40
2020/12/21 05:36:57;;;;;;;14.90;12.40;;;5.30;99.90;;;;;;5069922;28;20546;-40
2020/12/21 05:39:24;;;;;;;14.33;11.07;;;5.30;99.90;;;;;;5061344;28;20199;-39
2020/12/21 05:41:50;;;;;;;15.80;11.50;;;5.30;99.90;;;;;;5051230;28;20562;-40
2020/12/21 05:44:18;;;;;;;16.97;12.23;;;5.30;99.90;;;;;;5067518;28;20226;-39
2020/12/21 05:46:44;;;;;;;13.63;11.27;;;5.40;99.90;;;;;;5067005;28;20625;-41
2020/12/21 05:49:13;;;;;;;15.57;12.13;;;5.30;99.90;;;;;;5058150;28;20210;-40
2020/12/21 05:51:46;;;;;;;14.20;11.47;;;5.30;99.90;;;;;;5058268;28;20250;-40
2020/12/21 05:54:12;;;;;;;17.57;12.53;;;5.40;99.90;;;;;;5071000;28;20213;-42
2020/12/21 05:56:39;;;;;;;19.77;11.67;;;5.40;99.90;;;;;;5070498;28;20227;-41
2020/12/21 05:59:06;;;;;;;13.17;9.80;;;5.50;99.90;;;;;;5070393;28;20198;-40
2020/12/21 06:01:33;;;;;;;15.27;11.30;;;5.50;99.90;;;;;;5068483;28;20216;-39
2020/12/21 06:04:01;;;;;;;18.33;11.93;;;5.50;99.90;;;;;;5059699;28;20258;-40
2020/12/21 06:06:29;;;;;;;15.70;10.30;;;5.60;99.90;;;;;;5070349;28;20214;-40
2020/12/21 06:08:57;;;;;;;16.37;10.77;;;5.60;99.90;;;;;;5053836;28;20565;-39
2020/12/21 06:11:25;;;;;;;20.07;12.40;;;5.60;99.90;;;;;;5055535;28;20306;-40
2020/12/21 06:13:55;;;;;;;10.77;9.57;;;5.60;99.90;;;;;;5070613;28;20210;-40
2020/12/21 06:16:23;;;;;;;15.07;10.27;;;5.60;99.90;;;;;;5070718;28;20251;-40
2020/12/21 06:18:58;;;;;;;14.13;9.20;;;5.50;99.90;;;;;;5070154;28;20283;-41
2020/12/21 06:21:25;;;;;;;13.53;9.93;;;5.50;99.90;;;;;;5067837;28;20240;-40
2020/12/21 06:23:52;;;;;;;14.23;11.90;;;5.50;99.90;;;;;;5058551;28;20255;-41
2020/12/21 06:26:18;;;;;;;16.60;10.63;;;5.50;99.90;;;;;;5070027;28;20247;-41
2020/12/21 06:28:45;;;;;;;21.10;11.43;;;5.50;99.90;;;;;;5070089;28;20605;-41
2020/12/21 06:31:14;;;;;;;13.30;10.57;;;5.60;99.90;;;;;;5069855;28;20309;-41
2020/12/21 06:33:41;;;;;;;17.33;10.93;;;5.50;99.90;;;;;;5068382;28;20302;-41
2020/12/21 06:36:08;;;;;;;13.37;10.23;;;5.50;99.90;;;;;;5070186;28;20291;-41
2020/12/21 06:38:46;;;;;;;15.27;10.23;;;5.60;99.90;;;;;;5070254;28;20277;-41
2020/12/21 06:41:17;;;;;;;16.58;11.05;;;5.50;99.90;;;;;;5069777;28;20314;-41
2020/12/21 06:43:58;;;;;;;11.27;8.80;;;5.60;99.90;;;;;;5069300;28;20218;-41
2020/12/21 06:46:25;;;;;;;12.87;10.30;;;5.50;99.90;;;;;;5050174;28;20260;-42
2020/12/21 06:49:11;;;;;;;18.97;10.50;;;5.50;99.90;;;;;;5033665;28;20204;-41
2020/12/21 06:51:44;;;;;;;11.80;9.50;;;5.60;99.90;;;;;;5048201;28;20262;-41
2020/12/21 06:54:12;;;;;;;12.97;9.20;;;5.60;99.90;;;;;;5051802;28;20227;-40
2020/12/21 06:56:40;;;;;;;14.83;9.13;;;5.60;99.90;;;;;;5060908;28;20573;-42
2020/12/21 06:59:12;;;;;;;15.47;8.97;;;5.50;99.90;;;;;;5060177;28;20609;-41
2020/12/21 07:01:41;;;;;;;14.45;9.32;;;5.50;99.90;;;;;;5053126;28;20246;-41
2020/12/21 07:04:12;;;;;;;12.17;9.23;;;5.50;99.90;;;;;;5054250;28;20229;-40
2020/12/21 07:06:40;;;;;;;13.60;9.73;;;5.50;99.90;;;;;;5041543;28;20208;-41
2020/12/21 07:09:08;;;;;;;13.88;8.43;;;5.40;99.90;;;;;;5053656;28;20720;-41
2020/12/21 07:11:36;;;;;;;11.97;9.80;;;5.40;99.90;;;;;;5054251;28;20238;-40
2020/12/21 07:14:03;;;;;;;18.57;9.90;;;5.40;99.90;;;;;;5053842;28;20230;-40
2020/12/21 07:16:30;;;;;;;11.60;8.97;;;5.50;99.90;;;;;;5054475;28;20203;-40
2020/12/21 07:18:56;;;;;;;14.60;9.20;;;5.60;99.90;;;;;;5053813;28;20222;-40
2020/12/21 07:21:23;;;;;;;12.10;9.27;;;5.60;99.90;;;;;;5049058;28;20220;-40
2020/12/21 07:23:50;;;;;;;10.77;8.95;;;5.60;99.90;;;;;;5053991;28;20202;-43
2020/12/21 07:26:17;;;;;;;12.53;9.67;;;5.40;99.90;;;;;;5070757;28;20221;-41
2020/12/21 07:28:48;;;;;;;12.27;9.57;;;5.30;99.90;;;;;;5073630;28;20222;-41
2020/12/21 07:31:16;;;;;;;15.80;10.73;;;5.30;99.90;;;;;;5065363;28;20261;-40
2020/12/21 07:33:51;;;;;;;15.03;8.90;;;5.30;99.90;;;;;;5073341;28;20308;-40
2020/12/21 07:36:18;;;;;;;16.33;9.27;;;5.40;99.90;;;;;;5065636;28;20195;-40
2020/12/21 07:38:45;;;;;;;14.90;10.65;;;5.40;99.90;;;;;;5054223;28;20199;-41
2020/12/21 07:41:13;;;;;;;12.63;9.30;;;5.40;99.90;;;;;;5054946;28;20253;-41
2020/12/21 07:43:43;;;;;;;14.63;9.40;;;5.50;99.90;;;;;;5074865;28;20621;-40
2020/12/21 07:46:18;;;;;;;18.83;10.07;;;5.50;99.90;;;;;;5072650;28;20602;-41
2020/12/21 07:48:46;;;;;;;13.57;9.18;;;5.50;99.90;;;;;;5061469;28;20195;-42
2020/12/21 07:51:14;;;;;;;15.87;10.37;;;5.60;99.90;;;;;;5060266;28;20712;-40
2020/12/21 07:53:41;;;;;;;14.20;8.80;;;5.60;99.90;;;;;;5071291;28;20224;-41
2020/12/21 07:56:14;;;;;;;11.43;9.50;;;5.60;99.90;;;;;;5074807;28;20274;-40
2020/12/21 07:58:42;;;;;;;13.27;9.50;;;5.70;99.90;;;;;;5072582;28;20286;-41
2020/12/21 08:01:08;;;;;;;13.93;8.73;;;5.70;99.90;;;;;;5063388;28;20239;-41
2020/12/21 08:03:38;;;;;;;12.40;8.70;;;5.80;99.90;;;;;;5053268;28;20648;-40
2020/12/21 08:06:12;;;;;;;12.87;7.43;;;5.90;99.90;;;;;;5051752;28;20214;-41
2020/12/21 08:08:40;;;;;;;12.05;8.45;;;6.00;99.90;;;;;;5054700;28;20211;-41
2020/12/21 08:11:13;;;;;;;13.03;8.50;;;6.00;99.90;;;;;;5051530;28;20226;-41
2020/12/21 08:13:46;;;;;;;12.93;9.50;;;5.90;99.90;;;;;;5053480;28;20205;-41
2020/12/21 08:16:13;;;;;;;13.68;7.95;;;6.00;99.90;;;;;;5051696;28;20203;-42
2020/12/21 08:18:40;;;;;;;11.02;8.82;;;6.00;99.90;;;;;;5052733;28;20234;-41
2020/12/21 08:21:06;;;;;;;12.45;8.70;;;6.00;99.90;;;;;;5052483;28;20230;-42
2020/12/21 08:23:33;;;;;;;12.00;8.23;;;6.00;99.90;;;;;;5052816;28;20195;-43
2020/12/21 08:26:00;;;;;;;13.97;8.77;;;6.00;99.90;;;;;;5052673;28;20308;-42
2020/12/21 08:28:32;;;;;;;14.40;8.47;;;6.00;99.90;;;;;;5052407;28;20261;-42
2020/12/21 08:31:21;;;;;;;14.90;8.30;;;6.00;99.90;;;;;;5052458;28;20253;-42
2020/12/21 08:34:04;;;;;;;14.40;9.03;;;6.10;99.90;;;;;;5045803;28;20214;-42
2020/12/21 08:36:33;;;;;;;12.90;7.90;;;6.20;99.90;;;;;;5052410;28;20212;-42
2020/12/21 08:39:12;;;;;;;9.43;7.73;;;6.20;99.90;;;;;;5051590;28;20245;-42
2020/12/21 08:41:42;;;;;;;11.93;8.40;;;6.40;99.90;;;;;;5051105;28;20778;-43
2020/12/21 08:44:14;;;;;;;11.33;7.03;;;6.40;99.90;;;;;;5051783;28;20297;-40
2020/12/21 08:46:44;;;;;;;9.95;6.57;;;6.50;99.90;;;;;;5052021;28;20880;-42
2020/12/21 08:49:11;;;;;;;7.63;6.63;;;6.70;99.90;;;;;;5051971;28;20485;-41
2020/12/21 08:51:38;;;;;;;7.07;6.10;;;7.00;99.90;;;;;;5051436;28;20238;-41
2020/12/21 08:54:05;;;;;;;13.67;8.10;;;7.10;99.90;;;;;;5051465;28;20230;-42
2020/12/21 08:56:31;;;;;;;8.97;6.63;;;7.60;99.90;;;;;;5051799;28;20274;-41
2020/12/21 08:58:58;;;;;;;10.23;6.87;;;8.10;99.90;;;;;;5051114;28;20207;-41
2020/12/21 09:01:24;;;;;;;5.30;4.80;;;8.10;99.90;;;;;;5051421;28;20650;-40
2020/12/21 09:03:52;;;;;;;15.85;6.70;;;7.80;99.90;;;;;;5051392;28;20214;-41
2020/12/21 09:06:19;;;;;;;9.85;5.28;;;7.70;99.90;;;;;;5051255;28;20211;-41
2020/12/21 09:08:46;;;;;;;15.13;5.80;;;7.40;99.90;;;;;;5050975;28;20195;-41
2020/12/21 09:11:16;;;;;;;7.43;5.57;;;7.10;99.90;;;;;;5051212;28;20294;-41
2020/12/21 09:13:43;;;;;;;12.07;6.20;;;7.00;99.90;;;;;;5051711;28;20629;-40
2020/12/21 09:16:09;;;;;;;8.00;6.63;;;6.90;99.90;;;;;;5051505;28;20201;-41
2020/12/21 09:18:36;;;;;;;7.30;5.93;;;6.90;99.90;;;;;;5051942;28;20199;-40
2020/12/21 09:21:04;;;;;;;6.60;5.55;;;6.80;99.90;;;;;;5051577;28;20582;-41
2020/12/21 09:23:31;;;;;;;7.70;5.53;;;6.80;99.90;;;;;;5051377;28;20227;-41
2020/12/21 09:25:57;;;;;;;9.05;6.68;;;6.70;99.90;;;;;;5051013;28;20720;-40
2020/12/21 09:28:24;;;;;;;11.33;6.70;;;6.70;99.90;;;;;;5051761;28;20203;-41
2020/12/21 09:30:50;;;;;;;6.67;5.77;;;6.80;99.90;;;;;;5052136;28;20262;-41
2020/12/21 09:33:17;;;;;;;9.70;7.00;;;6.80;99.90;;;;;;5051285;28;20199;-40
2020/12/21 09:35:43;;;;;;;9.33;5.70;;;6.90;99.90;;;;;;5051595;28;20234;-41
2020/12/21 09:38:11;;;;;;;6.95;5.30;;;7.00;99.90;;;;;;5050115;28;20306;-40
2020/12/21 09:40:37;;;;;;;9.82;6.13;;;7.10;99.90;;;;;;5049458;28;20724;-41
2020/12/21 09:43:04;;;;;;;9.53;5.30;;;7.10;99.90;;;;;;5049770;28;20249;-41
2020/12/21 09:45:31;;;;;;;7.40;5.68;;;7.30;99.90;;;;;;5054276;28;20246;-42
2020/12/21 09:47:57;;;;;;;12.37;4.60;;;7.30;99.90;;;;;;5044264;28;20204;-40
2020/12/21 09:50:24;;;;;;;6.57;4.82;;;7.30;99.90;;;;;;5053423;28;20219;-40
2020/12/21 09:52:50;;;;;;;9.30;5.00;;;7.40;99.90;;;;;;5056808;28;20279;-42
2020/12/21 09:55:18;;;;;;;12.87;5.60;;;7.40;99.90;;;;;;5060361;28;20229;-42
2020/12/21 09:57:44;;;;;;;5.77;4.60;;;7.50;99.90;;;;;;5062018;28;20231;-40
2020/12/21 10:00:11;;;;;;;9.00;5.00;;;7.60;99.90;;;;;;5062281;28;20203;-42
2020/12/21 10:02:38;;;;;;;8.13;4.50;;;7.80;99.90;;;;;;5050114;28;20293;-40
2020/12/21 10:05:04;;;;;;;6.87;4.57;;;8.10;99.90;;;;;;5050830;28;20674;-42
2020/12/21 10:07:32;;;;;;;5.88;4.22;;;8.10;99.90;;;;;;5052237;28;20199;-40
2020/12/21 10:09:58;;;;;;;7.77;4.37;;;8.00;99.90;;;;;;5052401;28;20222;-41
2020/12/21 10:12:26;;;;;;;6.43;4.33;;;8.00;99.90;;;;;;5051838;28;20219;-42
2020/12/21 10:14:52;;;;;;;12.50;4.05;;;8.30;99.90;;;;;;5053721;28;20218;-42
2020/12/21 10:17:19;;;;;;;6.22;4.07;;;9.20;99.90;;;;;;5054669;28;20249;-41
2020/12/21 10:19:45;;;;;;;5.15;3.83;;;10.00;99.90;;;;;;5052666;28;20229;-43
2020/12/21 10:22:12;;;;;;;9.50;4.13;;;10.10;99.90;;;;;;5048454;28;20701;-42
2020/12/21 10:24:38;;;;;;;7.10;4.20;;;9.70;99.90;;;;;;5050553;28;20261;-40
2020/12/21 10:27:05;;;;;;;6.13;3.72;;;9.70;99.90;;;;;;5048761;28;20306;-41
2020/12/21 10:29:32;;;;;;;6.05;4.40;;;9.70;99.90;;;;;;5051726;28;20198;-42
2020/12/21 10:31:59;;;;;;;8.50;4.73;;;9.50;99.90;;;;;;5056103;28;20293;-42
2020/12/21 10:34:26;;;;;;;5.20;3.90;;;9.30;99.90;;;;;;5049030;28;20221;-40
2020/12/21 10:36:53;;;;;;;7.03;4.35;;;9.40;99.90;;;;;;5050785;28;20192;-42
2020/12/21 10:39:20;;;;;;;7.43;3.90;;;9.70;99.90;;;;;;5055325;28;20234;-42
2020/12/21 10:41:47;;;;;;;6.95;4.10;;;10.40;99.90;;;;;;5050979;28;20215;-43
2020/12/21 10:44:14;;;;;;;6.28;3.15;;;10.60;99.90;;;;;;5056163;28;20229;-42
2020/12/21 10:46:41;;;;;;;5.78;3.50;;;10.80;99.90;;;;;;5050670;28;20319;-42
2020/12/21 10:49:08;;;;;;;5.25;2.55;;;10.60;99.90;;;;;;5052570;28;20657;-42
2020/12/21 10:51:36;;;;;;;9.48;4.28;;;10.20;99.90;;;;;;5050752;28;20217;-42
2020/12/21 10:54:03;;;;;;;4.20;2.75;;;10.20;99.90;;;;;;5055786;28;20205;-43
2020/12/21 10:56:30;;;;;;;4.45;2.88;;;10.00;99.90;;;;;;5052531;28;20229;-42
2020/12/21 10:58:57;;;;;;;5.40;3.00;;;9.90;99.90;;;;;;5057774;28;20199;-41
2020/12/21 11:01:23;;;;;;;5.00;3.85;;;10.70;99.90;;;;;;5059445;28;20202;-43
2020/12/21 11:03:51;;;;;;;6.80;3.83;;;11.60;99.90;;;;;;5056602;28;20229;-42
2020/12/21 11:06:22;;;;;;;6.20;3.63;;;12.20;99.90;;;;;;5047393;28;20241;-42
2020/12/21 11:08:50;;;;;;;5.15;3.30;;;12.00;99.90;;;;;;5050310;28;20212;-41
2020/12/21 11:11:24;;;;;;;7.85;3.55;;;12.00;99.90;;;;;;5054740;28;20247;-43
2020/12/21 11:13:51;;;;;;;9.60;3.80;;;11.80;99.90;;;;;;5052119;28;20193;-42
2020/12/21 11:16:17;;;;;;;7.38;3.35;;;11.80;99.90;;;;;;5049180;28;20280;-43
2020/12/21 11:18:43;;;;;;;5.10;3.83;;;11.90;99.90;;;;;;5049086;28;20575;-43
2020/12/21 11:21:11;;;;;;;7.53;3.73;;;12.00;99.90;;;;;;5049045;28;20219;-43
2020/12/21 11:23:37;;;;;;;5.63;3.93;;;11.70;99.90;;;;;;5043601;28;20205;-43
2020/12/21 11:26:04;;;;;;;5.33;3.43;;;11.10;99.90;;;;;;5047859;28;20218;-42
2020/12/21 11:28:30;;;;;;;7.00;4.05;;;10.90;99.90;;;;;;5049865;28;20195;-43
2020/12/21 11:30:57;;;;;;;5.40;4.07;;;10.70;99.90;;;;;;5049127;28;20697;-42
2020/12/21 11:33:24;;;;;;;8.03;4.70;;;10.40;99.90;;;;;;5050625;28;20187;-40
2020/12/21 11:35:50;;;;;;;10.03;4.67;;;9.90;99.90;;;;;;5048317;28;20278;-40
2020/12/21 11:38:18;;;;;;;8.55;3.65;;;9.40;99.90;;;;;;5049986;28;20240;-40
2020/12/21 11:40:44;;;;;;;6.68;2.97;;;9.40;99.90;;;;;;5051755;28;20572;-41
2020/12/21 11:43:12;;;;;;;9.88;3.65;;;9.30;99.90;;;;;;5049689;28;20202;-42
2020/12/21 11:45:38;;;;;;;7.68;3.88;;;9.40;99.90;;;;;;5052556;28;20294;-41
2020/12/21 11:48:05;;;;;;;9.83;4.47;;;9.40;99.90;;;;;;5054148;28;20199;-40
2020/12/21 11:50:31;;;;;;;7.10;3.77;;;9.40;99.90;;;;;;5049731;28;20215;-40
2020/12/21 11:52:58;;;;;;;9.23;4.17;;;9.40;99.90;;;;;;5052667;28;20291;-40
2020/12/21 11:55:25;;;;;;;4.10;2.90;;;9.40;99.90;;;;;;5052741;28;20277;-40
2020/12/21 11:57:51;;;;;;;11.03;4.57;;;9.20;99.90;;;;;;5052190;28;20228;-42
2020/12/21 12:00:18;;;;;;;5.60;3.65;;;9.10;99.90;;;;;;5052587;28;20210;-40
2020/12/21 12:02:44;;;;;;;7.28;3.30;;;9.20;99.90;;;;;;5052356;28;20286;-41
2020/12/21 12:05:12;;;;;;;6.57;3.40;;;9.30;99.90;;;;;;5052762;28;20204;-41
2020/12/21 12:07:38;;;;;;;9.30;4.30;;;9.30;99.90;;;;;;5052421;28;20211;-41
2020/12/21 12:10:06;;;;;;;4.63;3.60;;;9.30;99.90;;;;;;5052675;28;20199;-40
2020/12/21 12:12:33;;;;;;;6.00;3.63;;;9.30;99.90;;;;;;5050209;28;20616;-41
2020/12/21 12:15:00;;;;;;;7.15;3.30;;;9.20;99.90;;;;;;5052224;28;20198;-41
2020/12/21 12:17:27;;;;;;;4.70;4.00;;;9.00;99.90;;;;;;5050268;28;20287;-42
2020/12/21 12:19:54;;;;;;;4.28;3.60;;;9.10;99.90;;;;;;5051627;28;20195;-41
2020/12/21 12:22:21;;;;;;;6.15;3.38;;;8.80;99.90;;;;;;5051419;28;20227;-41
2020/12/21 12:24:48;;;;;;;5.67;3.23;;;8.80;99.90;;;;;;5048207;28;20226;-41
2020/12/21 12:27:14;;;;;;;8.03;5.03;;;8.70;99.90;;;;;;5048066;28;20231;-41
2020/12/21 12:29:42;;;;;;;10.27;4.25;;;8.60;99.90;;;;;;5050469;28;20231;-40
2020/12/21 12:32:10;;;;;;;4.73;3.47;;;8.70;99.90;;;;;;5051656;28;20246;-41
2020/12/21 12:34:37;;;;;;;6.57;3.70;;;8.60;99.90;;;;;;5054329;28;20258;-41
2020/12/21 12:37:04;;;;;;;10.80;3.70;;;8.40;99.90;;;;;;5052662;28;20245;-42
2020/12/21 12:39:30;;;;;;;9.80;4.13;;;8.40;99.90;;;;;;5056150;28;20203;-40
2020/12/21 12:41:57;;;;;;;4.80;3.30;;;8.40;99.90;;;;;;5055879;28;20223;-41
2020/12/21 12:44:23;;;;;;;7.13;3.93;;;8.40;99.90;;;;;;5055478;28;20209;-41